createdAt,value
2023-03-21T00:04:24.482Z,6.57
2023-03-21T00:09:27.183Z,9.70
2023-03-21T00:14:30.809Z,7.60
2023-03-21T00:19:32.870Z,9.73
2023-03-21T00:24:35.919Z,6.43
2023-03-21T00:29:37.828Z,7.35
2023-03-21T00:34:48.534Z,5.50
2023-03-21T00:39:56.580Z,6.68
2023-03-21T00:44:58.300Z,5.18
2023-03-21T00:49:59.909Z,5.00
2023-03-21T00:55:01.556Z,7.80
2023-03-21T01:00:06.490Z,5.78
2023-03-21T01:05:11.456Z,5.28
2023-03-21T01:10:13.134Z,6.22
2023-03-21T01:15:14.785Z,5.65
2023-03-21T01:20:16.782Z,6.30
2023-03-21T01:25:22.603Z,5.50
2023-03-21T01:30:28.684Z,5.00
2023-03-21T01:35:41.023Z,6.03
2023-03-21T01:40:51.236Z,5.43
2023-03-21T01:46:30.220Z,5.65
2023-03-21T01:51:49.339Z,4.70
2023-03-21T01:56:57.715Z,6.35
2023-03-21T02:02:07.143Z,5.43
2023-03-21T02:07:24.266Z,5.63
2023-03-21T02:12:28.943Z,5.57
2023-03-21T02:17:48.870Z,5.70
2023-03-21T02:23:32.037Z,5.55
2023-03-21T02:28:56.415Z,5.32
2023-03-21T02:34:17.620Z,6.10
2023-03-21T02:39:36.117Z,4.72
2023-03-21T02:44:46.835Z,5.53
2023-03-21T02:49:59.769Z,10.45
2023-03-21T02:55:04.882Z,7.53
2023-03-21T03:00:20.819Z,5.30
2023-03-21T03:05:25.335Z,6.47
2023-03-21T03:10:42.303Z,6.75
2023-03-21T03:16:15.479Z,6.00
2023-03-21T03:21:40.384Z,5.75
2023-03-21T03:26:48.026Z,8.20
2023-03-21T03:32:01.555Z,6.55
2023-03-21T03:37:10.654Z,8.45
2023-03-21T03:42:36.239Z,7.30
2023-03-21T03:47:57.431Z,8.63
2023-03-21T03:53:32.204Z,10.25
2023-03-21T03:58:44.916Z,7.82
2023-03-21T04:03:54.626Z,11.18
2023-03-21T04:09:03.511Z,9.35
2023-03-21T04:14:07.257Z,10.25
2023-03-21T04:19:09.370Z,7.30
2023-03-21T04:24:13.835Z,7.70
2023-03-21T04:29:17.435Z,14.98
2023-03-21T04:34:40.419Z,8.88
2023-03-21T04:39:42.942Z,8.68
2023-03-21T04:44:46.594Z,11.52
2023-03-21T04:49:48.265Z,10.25
2023-03-21T04:54:49.930Z,17.05
2023-03-21T04:59:52.971Z,11.20
2023-03-21T05:04:54.580Z,10.13
2023-03-21T05:09:56.241Z,12.13
2023-03-21T05:14:57.849Z,11.32
2023-03-21T05:19:59.620Z,11.95
2023-03-21T05:25:02.342Z,10.95
2023-03-21T05:30:20.691Z,10.70
2023-03-21T05:35:26.899Z,12.40
2023-03-21T05:40:31.005Z,11.80
2023-03-21T05:45:33.874Z,15.13
2023-03-21T05:50:36.061Z,12.68
2023-03-21T05:55:45.622Z,10.70
2023-03-21T06:00:58.794Z,9.85
2023-03-21T06:06:07.760Z,10.30
2023-03-21T06:11:27.398Z,10.68
2023-03-21T06:16:54.998Z,15.23
2023-03-21T06:21:57.182Z,10.50
2023-03-21T06:26:59.402Z,11.07
2023-03-21T06:32:07.628Z,11.15
2023-03-21T06:37:09.704Z,9.30
2023-03-21T06:42:13.016Z,10.43
2023-03-21T06:47:15.748Z,12.77
2023-03-21T06:52:19.493Z,10.68
2023-03-21T06:57:22.002Z,9.63
2023-03-21T07:02:24.920Z,10.32
2023-03-21T07:07:49.878Z,9.48
2023-03-21T07:12:51.484Z,12.32
2023-03-21T07:17:59.343Z,9.65
2023-03-21T07:23:01.751Z,11.48
2023-03-21T07:28:03.456Z,10.70
2023-03-21T07:33:05.928Z,11.32
2023-03-21T07:38:07.974Z,10.05
2023-03-21T07:43:09.672Z,9.13
2023-03-21T07:48:17.988Z,7.60
2023-03-21T07:53:20.120Z,8.45
2023-03-21T07:58:22.422Z,8.43
2023-03-21T08:03:26.257Z,11.00
2023-03-21T08:08:27.980Z,8.32
2023-03-21T08:13:29.649Z,7.75
2023-03-21T08:18:31.299Z,8.82
2023-03-21T08:23:33.025Z,8.60
2023-03-21T08:28:34.945Z,9.65
2023-03-21T08:33:37.214Z,11.50
2023-03-21T08:38:39.509Z,10.55
2023-03-21T08:43:41.152Z,9.57
2023-03-21T08:48:43.105Z,9.80
2023-03-21T08:53:44.732Z,10.48
2023-03-21T08:58:47.382Z,10.07
2023-03-21T09:03:49.046Z,8.95
2023-03-21T09:08:53.475Z,10.77
2023-03-21T09:13:55.150Z,9.77
2023-03-21T09:18:59.061Z,8.93
2023-03-21T09:24:00.928Z,10.38
2023-03-21T09:29:04.921Z,9.40
2023-03-21T09:34:06.958Z,9.70
2023-03-21T09:39:08.676Z,9.57
2023-03-21T09:44:10.683Z,9.57
2023-03-21T09:49:35.334Z,10.80
2023-03-21T09:54:43.028Z,10.20
2023-03-21T09:59:44.944Z,10.35
2023-03-21T10:04:47.031Z,9.70
2023-03-21T10:09:51.989Z,10.98
2023-03-21T10:14:58.132Z,11.32
2023-03-21T10:20:17.379Z,11.48
2023-03-21T10:25:33.131Z,12.10
2023-03-21T10:30:42.488Z,12.02
2023-03-21T10:35:50.515Z,12.60
2023-03-21T10:40:52.212Z,11.32
2023-03-21T10:45:57.858Z,12.13
2023-03-21T10:50:59.601Z,12.02
2023-03-21T10:56:01.820Z,12.43
2023-03-21T11:01:08.350Z,11.82
2023-03-21T11:06:21.864Z,13.50
2023-03-21T11:11:33.470Z,12.80
2023-03-21T11:16:44.500Z,14.70
2023-03-21T11:21:46.639Z,15.07
2023-03-21T11:26:50.765Z,15.25
2023-03-21T11:31:52.942Z,15.63
2023-03-21T11:37:01.258Z,16.35
2023-03-21T11:42:03.284Z,16.75
2023-03-21T11:47:04.981Z,16.38
2023-03-21T11:52:21.663Z,16.88
2023-03-21T11:57:52.608Z,17.23
2023-03-21T12:03:00.307Z,18.05
2023-03-21T12:08:23.289Z,17.85
2023-03-21T12:13:43.318Z,19.38
2023-03-21T12:19:03.865Z,16.90
2023-03-21T12:24:26.666Z,17.45
2023-03-21T12:29:40.560Z,18.13
2023-03-21T12:35:02.815Z,18.63
2023-03-21T12:40:33.863Z,17.85
2023-03-21T12:45:46.975Z,17.17
2023-03-21T12:50:53.846Z,17.83
2023-03-21T12:56:01.561Z,17.33
2023-03-21T13:01:06.705Z,17.80
2023-03-21T13:06:13.410Z,17.95
2023-03-21T13:11:19.499Z,18.38
2023-03-21T13:16:30.253Z,19.08
2023-03-21T13:21:34.981Z,18.80
2023-03-21T13:26:42.014Z,17.98
2023-03-21T13:31:52.543Z,18.13
2023-03-21T13:36:56.514Z,17.30
2023-03-21T13:42:04.632Z,16.55
2023-03-21T13:47:25.024Z,17.65
2023-03-21T13:52:28.222Z,17.75
2023-03-21T13:57:30.524Z,17.70
2023-03-21T14:02:34.166Z,18.13
2023-03-21T14:07:41.671Z,17.67
2023-03-21T14:12:44.466Z,18.10
2023-03-21T14:18:16.370Z,18.40
2023-03-21T14:23:28.740Z,17.75
2023-03-21T14:28:33.187Z,17.60
2023-03-21T14:33:44.263Z,17.83
2023-03-21T14:39:02.210Z,17.40
2023-03-21T14:44:25.472Z,17.98
2023-03-21T14:49:30.313Z,18.13
2023-03-21T14:54:32.832Z,17.42
2023-03-21T14:59:37.985Z,18.08
2023-03-21T15:04:39.801Z,17.70
2023-03-21T15:09:54.293Z,17.40
2023-03-21T15:14:56.336Z,17.60
2023-03-21T15:19:57.982Z,17.92
2023-03-21T15:25:04.465Z,17.80
2023-03-21T15:30:07.503Z,18.02
2023-03-21T15:35:21.403Z,17.08
2023-03-21T15:40:31.077Z,17.85
2023-03-21T15:45:33.200Z,17.13
2023-03-21T15:51:12.171Z,17.23
2023-03-21T15:56:16.391Z,17.13
2023-03-21T16:01:20.326Z,16.70
2023-03-21T16:06:29.383Z,16.58
2023-03-21T16:11:51.226Z,15.88
2023-03-21T16:16:53.045Z,15.82
2023-03-21T16:21:54.650Z,14.77
2023-03-21T16:26:56.611Z,15.13
2023-03-21T16:31:58.250Z,15.43
2023-03-21T16:36:59.910Z,15.55
2023-03-21T16:42:01.543Z,15.23
2023-03-21T16:47:03.224Z,16.67
2023-03-21T16:52:04.998Z,16.65
2023-03-21T16:57:09.059Z,15.63
2023-03-21T17:02:16.914Z,15.95
2023-03-21T17:07:18.989Z,15.02
2023-03-21T17:12:20.840Z,15.82
2023-03-21T17:17:22.480Z,13.98
2023-03-21T17:22:24.093Z,13.05
2023-03-21T17:27:25.856Z,14.10
2023-03-21T17:32:27.517Z,14.68
2023-03-21T17:37:29.139Z,13.48
2023-03-21T17:42:30.789Z,12.77
2023-03-21T17:47:32.834Z,12.10
2023-03-21T17:52:35.389Z,10.82
2023-03-21T17:57:37.735Z,9.95
2023-03-21T18:02:40.362Z,8.18
2023-03-21T18:08:08.870Z,9.18
2023-03-21T18:13:05.149Z,8.13
2023-03-21T18:18:06.929Z,9.57
2023-03-21T18:23:08.753Z,8.85
2023-03-21T18:28:12.490Z,8.60
2023-03-21T18:33:14.820Z,9.48
2023-03-21T18:38:16.659Z,10.35
2023-03-21T18:48:40.566Z,10.10
2023-03-21T18:53:42.685Z,11.32
2023-03-21T18:58:44.956Z,11.70
2023-03-21T19:04:11.639Z,12.23
2023-03-21T19:09:09.893Z,12.45
2023-03-21T19:14:13.936Z,11.00
2023-03-21T19:19:18.737Z,11.52
2023-03-21T19:24:27.762Z,11.82
2023-03-21T19:29:30.239Z,12.40
2023-03-21T19:34:32.310Z,12.00
2023-03-21T19:39:34.222Z,11.43
2023-03-21T19:44:36.783Z,10.85
2023-03-21T19:50:20.847Z,10.68
2023-03-21T19:55:02.676Z,10.98
2023-03-21T20:00:05.412Z,10.98
2023-03-21T20:05:07.836Z,11.20
2023-03-21T20:10:11.048Z,11.38
2023-03-21T20:15:19.215Z,11.88
2023-03-21T20:20:23.546Z,10.30
2023-03-21T20:25:25.609Z,8.43
2023-03-21T20:30:27.802Z,7.28
2023-03-21T20:36:16.594Z,6.72
2023-03-21T20:40:53.044Z,5.85
2023-03-21T20:46:04.024Z,6.75
2023-03-21T20:52:14.877Z,6.32
2023-03-21T20:56:33.126Z,8.25
2023-03-21T21:01:34.978Z,7.90
2023-03-21T21:06:36.794Z,9.25
2023-03-21T21:17:07.734Z,9.77
2023-03-21T21:22:19.341Z,11.15
2023-03-21T21:27:21.134Z,13.68
2023-03-21T21:32:23.019Z,9.48
2023-03-21T21:37:25.172Z,8.88
2023-03-21T21:42:27.344Z,9.75
2023-03-21T21:47:29.337Z,11.73
2023-03-21T21:52:31.192Z,8.98
2023-03-21T21:57:34.744Z,11.82
2023-03-21T22:02:36.922Z,9.40
2023-03-21T22:07:39.333Z,12.50
2023-03-21T22:12:41.174Z,9.77
2023-03-21T22:17:43.235Z,12.27
2023-03-21T22:22:45.327Z,10.95
2023-03-21T22:27:47.262Z,11.88
2023-03-21T22:33:06.224Z,17.50
2023-03-21T22:38:10.482Z,11.82
2023-03-21T22:43:12.309Z,14.85
2023-03-21T22:48:14.364Z,12.27
2023-03-21T22:53:16.272Z,13.45
2023-03-21T22:58:18.165Z,12.52
2023-03-21T23:03:19.980Z,13.38
2023-03-21T23:08:21.967Z,15.35
2023-03-21T23:13:23.889Z,13.38
2023-03-21T23:18:25.722Z,13.95
2023-03-21T23:23:27.571Z,10.48
2023-03-21T23:28:29.368Z,12.40
2023-03-21T23:33:31.961Z,12.82
2023-03-21T23:38:33.989Z,11.77
2023-03-21T23:43:36.063Z,11.65
2023-03-21T23:48:37.840Z,11.20
2023-03-21T23:53:40.192Z,12.63
2023-03-21T23:58:42.016Z,11.52
